This is the latest recevied weather packets stored in our database for station/object KC3QJO. If no packets are shown the sender has not sent any weather packets the latest 10 day(s).
| Time | Temp. | Humidity | Pressure | Rain* | Wind** | Luminosity | Snow |
|---|---|---|---|---|---|---|---|
| 1777578054 | 15° C | 58% | 1006.3 hPa | 0 mm | - | 193 W/m² | - |
| 1777576254 | 14.44° C | 63% | 1006.4 hPa | 0 mm | - | 216 W/m² | - |
| 1777575656 | 13.89° C | 62% | 1006.4 hPa | 0 mm | - | 250 W/m² | - |
| 1777572358 | 15° C | 61% | 1006.5 hPa | 0 mm | - | 381 W/m² | - |
| 1777570255 | 15.56° C | 58% | 1006.5 hPa | 0 mm | - | 424 W/m² | - |
| 1777568754 | 14.44° C | 65% | 1006.5 hPa | 0 mm | - | 461 W/m² | - |
| 1777567558 | 14.44° C | 66% | 1006.3 hPa | 0 mm | - | 418 W/m² | - |
| 1777566952 | 14.44° C | 68% | 1006.4 hPa | 0 mm | - | 353 W/m² | - |
| 1777565152 | 13.33° C | 73% | 1006.8 hPa | 0 mm | - | 257 W/m² | - |
| 1777564857 | 13.33° C | 74% | 1006.8 hPa | 0 mm | - | 213 W/m² | - |
| 1777563055 | 13.33° C | 77% | 1007 hPa | 0 mm | - | 218 W/m² | - |
| 1777562162 | 12.78° C | 77% | 1007 hPa | 0 mm | - | 218 W/m² | - |
| 1777560955 | 13.89° C | 76% | 1007 hPa | 0 mm | - | 123 W/m² | - |
| 1777560657 | 13.89° C | 77% | 1006.9 hPa | 0 mm | - | 127 W/m² | - |
| 1777560052 | 13.89° C | 78% | 1006.9 hPa | 0 mm | - | 230 W/m² | - |
| 1777559152 | 12.78° C | 89% | 1006.7 hPa | 0 mm | - | 786 W/m² | - |
| 1777555554 | 10° C | 95% | 1006.8 hPa | 0 mm | - | 295 W/m² | - |
| 1777554060 | 8.89° C | 95% | 1006.8 hPa | 0 mm | - | 192 W/m² | - |
| 1777551354 | 8.33° C | 94% | 1006.5 hPa | 0 mm | - | 63 W/m² | - |
| 1777550455 | 8.33° C | 94% | 1006.6 hPa | 0 mm | - | 86 W/m² | - |
| 1777549854 | 8.33° C | 94% | 1006.6 hPa | 0 mm | - | 69 W/m² | - |
| 1777549251 | 8.33° C | 95% | 1006.7 hPa | 0.25 mm | - | 100 W/m² | - |
| 1777548955 | 7.78° C | 94% | 1006.6 hPa | 0.25 mm | - | 93 W/m² | - |
| 1777546555 | 7.78° C | 94% | 1006.9 hPa | 0.25 mm | - | 21 W/m² | - |
| 1777545657 | 7.78° C | 94% | 1006.7 hPa | 0 mm | - | 12 W/m² | - |
* Rain latest hour (hover to see other rain measurements)
** Current wind speed in m/s (hover to see current wind gust speed)